Terminal Aerodrome Forecast
Issued by NWS

Home | Current Version | Previous Version | Text Only | Print | Product List | Glossary On
Versions: 1 2 3 4 5 6 7 8 9 10 11 12 13
000
FTUS46 KPDT 280400 AAA
TAFPSC
TAF AMD
KPSC 280408Z 2804/2824 22008KT P6SM VCSH SCT070 BKN090
     FM280900 22020G30KT P6SM BKN070
     FM281100 22018G28KT P6SM SCT070
     FM281500 22015G25KT P6SM SKC=

USA.gov is the U.S. government's official web portal to all federal, state and local government web resources and services.